Time;durP1;ratioP1;P1;durP2;ratioP2;P2;SDS_P1;SDS_P2;PMS_P1;PMS_P2;Temp;Humidity;BMP_temperature;BMP_pressure;BME280_temperature;BME280_humidity;BME280_pressure;Samples;Min_cycle;Max_cycle;Signal;HPM_P1;HPM_P2
2023/11/27 00:00:26;;;;;;;5.40;3.93;;;8.80;99.90;;;;;;5013959;28;21056;-89
2023/11/27 00:02:52;;;;;;;5.72;3.70;;;8.80;99.90;;;;;;5004480;28;20439;-89
2023/11/27 00:05:19;;;;;;;5.10;3.57;;;8.90;99.90;;;;;;5037714;28;20188;-88
2023/11/27 00:07:45;;;;;;;6.20;3.30;;;8.80;99.90;;;;;;5005209;28;20482;-89
2023/11/27 00:10:13;;;;;;;6.10;3.60;;;8.80;99.90;;;;;;5021307;28;20437;-88
2023/11/27 00:12:39;;;;;;;6.57;3.93;;;8.80;99.90;;;;;;5032339;28;20430;-88
2023/11/27 00:15:05;;;;;;;5.83;3.73;;;8.80;99.90;;;;;;5004835;28;20426;-88
2023/11/27 00:17:31;;;;;;;8.33;4.47;;;8.80;99.90;;;;;;5037812;28;20473;-86
2023/11/27 00:19:57;;;;;;;5.17;3.30;;;8.80;99.90;;;;;;5004749;28;20442;-88
2023/11/27 00:22:23;;;;;;;5.75;4.20;;;8.80;99.90;;;;;;5017596;28;20522;-85
2023/11/27 00:24:49;;;;;;;8.77;4.23;;;8.90;99.90;;;;;;4985739;28;21255;-89
2023/11/27 00:27:17;;;;;;;4.90;3.80;;;8.80;99.90;;;;;;5003820;28;20479;-88
2023/11/27 00:29:44;;;;;;;4.90;3.72;;;9.10;99.90;;;;;;5000353;28;20430;-88
2023/11/27 00:32:12;;;;;;;5.57;4.00;;;8.80;99.90;;;;;;5001600;28;20191;-89
2023/11/27 00:34:38;;;;;;;5.03;3.70;;;8.80;99.90;;;;;;5022553;28;21221;-89
2023/11/27 00:37:04;;;;;;;4.75;3.30;;;8.80;99.90;;;;;;5004856;28;20451;-89
2023/11/27 00:39:30;;;;;;;5.37;3.67;;;8.80;99.90;;;;;;5021314;28;20267;-88
2023/11/27 00:41:56;;;;;;;3.63;3.33;;;8.90;99.90;;;;;;5010212;28;21038;-87
2023/11/27 00:44:22;;;;;;;3.97;3.53;;;8.80;99.90;;;;;;5001548;28;20455;-89
2023/11/27 00:46:48;;;;;;;4.50;4.00;;;9.50;99.90;;;;;;5019720;28;20466;-89
2023/11/27 00:49:14;;;;;;;7.73;3.93;;;8.90;99.90;;;;;;5003735;28;20516;-90
2023/11/27 00:51:40;;;;;;;4.67;3.60;;;8.80;99.90;;;;;;5020912;28;20456;-89
2023/11/27 00:54:06;;;;;;;4.30;3.40;;;8.90;99.90;;;;;;5021203;28;20505;-88
2023/11/27 00:56:31;;;;;;;6.07;3.90;;;8.70;99.90;;;;;;5000458;28;20208;-88
2023/11/27 00:58:57;;;;;;;7.65;3.88;;;8.70;99.90;;;;;;5019996;28;20215;-88
2023/11/27 01:01:25;;;;;;;6.73;3.83;;;8.80;99.90;;;;;;5003999;28;20224;-87
2023/11/27 01:03:51;;;;;;;7.20;3.77;;;8.90;99.90;;;;;;5003063;28;20231;-89
2023/11/27 01:06:17;;;;;;;6.67;3.60;;;8.60;99.90;;;;;;5003837;28;20587;-88
2023/11/27 01:08:45;;;;;;;5.60;3.93;;;8.80;99.90;;;;;;5037082;28;20438;-89
2023/11/27 01:11:14;;;;;;;5.00;3.97;;;8.80;99.90;;;;;;5021284;28;20434;-89
2023/11/27 01:13:42;;;;;;;6.53;3.60;;;8.80;99.90;;;;;;5036146;28;20488;-88
2023/11/27 01:16:08;;;;;;;5.60;4.40;;;8.70;99.90;;;;;;5016933;28;20892;-88
2023/11/27 01:18:34;;;;;;;7.87;3.90;;;8.70;99.90;;;;;;5016793;28;20489;-89
2023/11/27 01:21:00;;;;;;;4.90;3.50;;;8.70;99.90;;;;;;5003881;28;20450;-87
2023/11/27 01:23:28;;;;;;;4.47;3.73;;;8.70;99.90;;;;;;5003823;28;20979;-83
2023/11/27 01:25:54;;;;;;;5.82;3.65;;;8.70;99.90;;;;;;5000966;28;20634;-83
2023/11/27 01:28:20;;;;;;;5.07;3.30;;;8.70;99.90;;;;;;5030165;28;20650;-83
2023/11/27 01:30:48;;;;;;;5.63;3.87;;;8.80;99.90;;;;;;5031661;28;20292;-84
2023/11/27 01:33:16;;;;;;;4.93;4.00;;;8.80;99.90;;;;;;5014670;28;20888;-84
2023/11/27 01:35:44;;;;;;;9.93;4.77;;;8.80;99.90;;;;;;5015276;28;20538;-84
2023/11/27 01:38:10;;;;;;;5.80;3.90;;;8.80;99.90;;;;;;5016570;28;20831;-82
2023/11/27 01:40:39;;;;;;;5.47;3.83;;;8.80;99.90;;;;;;5028569;28;20223;-84
2023/11/27 01:43:14;;;;;;;6.57;3.70;;;8.80;99.90;;;;;;5029749;28;20431;-84
2023/11/27 01:45:40;;;;;;;4.20;3.60;;;8.80;99.90;;;;;;4998096;28;20436;-84
2023/11/27 01:48:06;;;;;;;4.57;3.90;;;8.80;99.90;;;;;;5012712;28;20478;-84
2023/11/27 01:50:33;;;;;;;5.97;4.73;;;8.80;99.90;;;;;;5029031;28;20471;-84
2023/11/27 01:53:00;;;;;;;6.30;4.15;;;8.70;99.90;;;;;;5010460;28;20436;-83
2023/11/27 01:55:27;;;;;;;7.40;4.70;;;8.70;99.90;;;;;;5005412;28;20188;-84
2023/11/27 01:57:53;;;;;;;5.70;4.20;;;8.80;99.90;;;;;;5044974;28;20791;-83
2023/11/27 02:00:19;;;;;;;6.07;4.20;;;8.80;99.90;;;;;;5012768;28;20458;-84
2023/11/27 02:02:49;;;;;;;6.40;4.20;;;9.00;99.90;;;;;;5031093;28;21195;-83
2023/11/27 02:05:18;;;;;;;4.80;4.10;;;8.60;99.90;;;;;;5012610;28;20438;-84
2023/11/27 02:07:44;;;;;;;5.67;4.30;;;8.70;99.90;;;;;;5020567;28;20474;-84
2023/11/27 02:10:11;;;;;;;4.38;3.80;;;8.70;99.90;;;;;;5030212;28;20427;-84
2023/11/27 02:12:39;;;;;;;6.47;4.13;;;8.70;99.90;;;;;;5029295;28;20212;-84
2023/11/27 02:15:09;;;;;;;7.83;4.23;;;8.80;99.90;;;;;;5009521;28;20199;-84
2023/11/27 02:17:35;;;;;;;5.00;3.70;;;8.80;99.90;;;;;;5015961;28;20446;-84
2023/11/27 02:20:04;;;;;;;6.40;3.90;;;8.80;99.90;;;;;;5012349;28;20459;-84
2023/11/27 02:22:30;;;;;;;5.63;4.33;;;8.80;99.90;;;;;;5012885;28;20461;-84
2023/11/27 02:24:58;;;;;;;4.80;4.00;;;8.80;99.90;;;;;;5012595;28;20434;-82
2023/11/27 02:27:26;;;;;;;6.20;4.30;;;8.80;99.90;;;;;;5011747;28;20314;-84
2023/11/27 02:29:52;;;;;;;6.47;5.20;;;8.80;99.90;;;;;;5031926;28;20525;-83
2023/11/27 02:32:18;;;;;;;7.10;4.40;;;8.80;99.90;;;;;;4992886;28;21095;-84
2023/11/27 02:34:47;;;;;;;7.23;4.70;;;8.80;99.90;;;;;;5011208;28;20995;-83
2023/11/27 02:37:14;;;;;;;5.95;4.45;;;8.80;99.90;;;;;;5026577;28;20481;-84
2023/11/27 02:39:42;;;;;;;6.78;4.38;;;8.70;99.90;;;;;;5014557;28;20203;-84
2023/11/27 02:42:09;;;;;;;5.10;3.93;;;8.80;99.90;;;;;;5026301;28;20625;-84
2023/11/27 02:44:35;;;;;;;6.90;4.90;;;8.90;99.90;;;;;;5031692;28;20443;-83
2023/11/27 02:47:01;;;;;;;5.77;4.43;;;8.80;99.90;;;;;;5038027;28;20463;-84
2023/11/27 02:49:27;;;;;;;6.67;4.47;;;8.80;99.90;;;;;;5028171;28;20493;-83
2023/11/27 02:51:56;;;;;;;5.43;4.17;;;9.40;99.90;;;;;;4987574;28;20509;-83
2023/11/27 02:54:22;;;;;;;4.67;4.20;;;8.70;99.90;;;;;;4984626;28;20459;-84
2023/11/27 02:56:51;;;;;;;5.00;4.47;;;8.70;99.90;;;;;;4995929;28;20849;-84
2023/11/27 02:59:18;;;;;;;7.27;4.73;;;8.70;99.90;;;;;;4995767;28;20522;-84
2023/11/27 03:01:46;;;;;;;9.15;4.75;;;8.70;99.90;;;;;;4983673;28;20510;-84
2023/11/27 03:04:15;;;;;;;11.03;4.77;;;9.00;99.90;;;;;;5010956;28;20208;-84
2023/11/27 03:06:40;;;;;;;5.53;4.07;;;8.70;99.90;;;;;;5010145;28;20478;-82
2023/11/27 03:09:10;;;;;;;4.90;3.57;;;9.20;99.90;;;;;;4985947;28;20478;-84
2023/11/27 03:11:37;;;;;;;4.80;3.87;;;8.80;99.90;;;;;;5029146;28;20443;-83
2023/11/27 03:14:03;;;;;;;6.23;3.97;;;8.80;99.90;;;;;;5025655;28;20473;-84
2023/11/27 03:16:29;;;;;;;7.17;3.97;;;8.70;99.90;;;;;;5008695;28;20845;-84
2023/11/27 03:18:55;;;;;;;4.90;3.90;;;8.70;99.90;;;;;;5029481;28;20566;-84
2023/11/27 03:21:28;;;;;;;4.63;3.60;;;8.70;99.90;;;;;;4999657;28;20447;-84
2023/11/27 03:23:54;;;;;;;7.50;3.93;;;8.70;99.90;;;;;;4991755;28;20231;-83
2023/11/27 03:26:22;;;;;;;6.82;4.03;;;8.60;99.90;;;;;;5003862;28;20470;-83
2023/11/27 03:28:48;;;;;;;5.77;4.03;;;8.70;99.90;;;;;;4989726;28;20790;-84
2023/11/27 03:31:14;;;;;;;6.35;4.47;;;8.70;99.90;;;;;;4993731;28;20466;-83
2023/11/27 03:33:41;;;;;;;5.13;4.17;;;8.70;99.90;;;;;;5001510;28;20208;-84
2023/11/27 03:36:07;;;;;;;6.33;4.30;;;8.80;99.90;;;;;;5031880;28;20466;-83
2023/11/27 03:38:36;;;;;;;5.77;3.83;;;8.70;99.90;;;;;;5033382;28;20195;-83
2023/11/27 03:41:03;;;;;;;7.20;4.07;;;8.60;99.90;;;;;;4998856;28;20435;-84
2023/11/27 03:43:30;;;;;;;5.15;3.50;;;8.70;99.90;;;;;;5011176;28;20428;-83
2023/11/27 03:45:56;;;;;;;5.90;4.17;;;8.70;99.90;;;;;;5015134;28;20988;-84
2023/11/27 03:48:22;;;;;;;5.57;4.13;;;8.70;99.90;;;;;;5015211;28;20581;-83
2023/11/27 03:50:52;;;;;;;4.22;3.88;;;8.70;99.90;;;;;;5042007;28;20769;-83
2023/11/27 03:53:18;;;;;;;3.93;3.50;;;8.70;99.90;;;;;;5034875;28;20184;-84
2023/11/27 03:55:44;;;;;;;4.37;3.50;;;8.80;99.90;;;;;;5018626;28;20481;-83
2023/11/27 03:58:10;;;;;;;4.57;3.90;;;8.70;99.90;;;;;;5052645;28;20215;-84
2023/11/27 04:00:38;;;;;;;4.80;4.38;;;8.50;99.90;;;;;;5018374;28;20531;-83
2023/11/27 04:03:06;;;;;;;4.63;3.77;;;8.70;99.90;;;;;;5046185;28;20203;-84
2023/11/27 04:05:35;;;;;;;4.40;4.00;;;8.70;99.90;;;;;;5035080;28;20213;-84
2023/11/27 04:08:00;;;;;;;3.58;3.28;;;8.70;99.90;;;;;;5018217;28;20484;-82
2023/11/27 04:10:30;;;;;;;3.85;3.55;;;8.90;99.90;;;;;;5034886;28;20192;-83
2023/11/27 04:12:57;;;;;;;4.87;4.37;;;8.80;99.90;;;;;;5018599;28;20343;-84
2023/11/27 04:15:23;;;;;;;5.87;3.70;;;8.80;99.90;;;;;;5013846;28;20518;-84
2023/11/27 04:17:49;;;;;;;7.50;3.67;;;8.80;99.90;;;;;;5017116;28;20534;-85
2023/11/27 04:20:16;;;;;;;8.20;4.00;;;8.70;99.90;;;;;;5034406;28;20431;-83
2023/11/27 04:22:45;;;;;;;4.17;3.47;;;8.70;99.90;;;;;;5051929;28;20427;-84
2023/11/27 04:25:11;;;;;;;4.40;4.00;;;8.70;99.90;;;;;;5016730;28;20435;-84
2023/11/27 04:27:37;;;;;;;7.77;3.80;;;8.80;99.90;;;;;;5052322;28;20462;-83
2023/11/27 04:30:05;;;;;;;4.32;3.45;;;8.70;99.90;;;;;;5052040;28;20446;-85
2023/11/27 04:32:36;;;;;;;5.87;3.50;;;8.70;99.90;;;;;;5001665;28;20608;-83
2023/11/27 04:35:08;;;;;;;3.83;3.43;;;8.70;99.90;;;;;;5034834;28;20446;-84
2023/11/27 04:37:34;;;;;;;5.27;4.10;;;8.70;99.90;;;;;;5015248;28;20451;-83
2023/11/27 04:40:03;;;;;;;5.87;4.40;;;8.70;99.90;;;;;;5018483;28;20439;-83
2023/11/27 04:42:33;;;;;;;4.90;3.60;;;8.60;99.90;;;;;;5034608;28;20462;-84
2023/11/27 04:44:59;;;;;;;5.13;3.87;;;8.60;99.90;;;;;;5048609;28;21056;-83
2023/11/27 04:47:24;;;;;;;7.20;4.23;;;8.60;99.90;;;;;;5033501;28;20560;-84
2023/11/27 04:49:52;;;;;;;4.00;3.60;;;8.70;99.90;;;;;;5001026;28;20253;-84
2023/11/27 04:52:21;;;;;;;4.00;3.20;;;8.60;99.90;;;;;;5017315;28;20457;-84
2023/11/27 04:54:47;;;;;;;5.50;3.27;;;8.60;99.90;;;;;;5017709;28;20809;-83
2023/11/27 04:57:21;;;;;;;5.13;4.10;;;8.60;99.90;;;;;;5039807;28;20446;-84
2023/11/27 04:59:47;;;;;;;4.80;3.97;;;8.60;99.90;;;;;;5013987;28;20506;-83
2023/11/27 05:02:18;;;;;;;4.80;4.10;;;8.60;99.90;;;;;;5033983;28;20478;-83
2023/11/27 05:04:44;;;;;;;6.53;3.80;;;8.50;99.90;;;;;;5033924;28;20528;-84
2023/11/27 05:07:15;;;;;;;9.53;4.00;;;8.60;99.90;;;;;;5033730;28;20480;-84
2023/11/27 05:09:44;;;;;;;4.28;3.50;;;8.70;99.90;;;;;;5033638;28;20441;-84
2023/11/27 05:12:14;;;;;;;6.30;3.80;;;8.70;99.90;;;;;;5034011;28;20202;-84
2023/11/27 05:14:42;;;;;;;4.70;4.10;;;8.70;99.90;;;;;;5033526;28;20896;-84
2023/11/27 05:17:08;;;;;;;4.50;4.10;;;8.70;99.90;;;;;;5051486;28;20497;-83
2023/11/27 05:19:36;;;;;;;5.20;4.27;;;8.70;99.90;;;;;;5050794;28;20205;-84
2023/11/27 05:22:04;;;;;;;4.50;4.10;;;8.70;99.90;;;;;;5051375;28;20435;-85
2023/11/27 05:24:30;;;;;;;4.70;4.17;;;8.70;99.90;;;;;;5012805;28;20432;-84
2023/11/27 05:26:59;;;;;;;5.60;4.47;;;8.70;99.90;;;;;;5017029;28;20478;-84
2023/11/27 05:29:25;;;;;;;5.90;4.73;;;8.60;99.90;;;;;;5051405;28;20423;-84
2023/11/27 05:31:53;;;;;;;5.28;4.57;;;8.70;99.90;;;;;;5050983;28;20438;-84
2023/11/27 05:34:25;;;;;;;5.80;4.40;;;8.40;99.90;;;;;;5009749;28;20209;-83
2023/11/27 05:36:54;;;;;;;7.90;5.30;;;8.60;99.90;;;;;;5016371;28;20438;-84
2023/11/27 05:39:21;;;;;;;4.50;4.10;;;8.60;99.90;;;;;;5033246;28;21171;-84
2023/11/27 05:41:52;;;;;;;5.70;4.50;;;8.60;99.90;;;;;;5016509;28;20432;-84
2023/11/27 05:44:19;;;;;;;6.17;4.33;;;8.60;99.90;;;;;;5051002;28;20769;-84
2023/11/27 05:46:49;;;;;;;6.70;4.27;;;8.60;99.90;;;;;;5016480;28;20550;-84
2023/11/27 05:49:14;;;;;;;6.23;4.73;;;8.60;99.90;;;;;;5050282;28;20438;-84
2023/11/27 05:51:41;;;;;;;4.80;4.30;;;8.60;99.90;;;;;;5011800;28;20459;-84
2023/11/27 05:54:11;;;;;;;7.50;5.00;;;8.50;99.90;;;;;;5033046;28;20425;-84
2023/11/27 05:56:39;;;;;;;6.43;4.33;;;8.50;99.90;;;;;;5049686;28;20543;-84
2023/11/27 05:59:07;;;;;;;7.77;4.77;;;8.50;99.90;;;;;;5009633;28;20551;-84
2023/11/27 06:01:35;;;;;;;6.40;5.00;;;8.50;99.90;;;;;;5050129;28;20241;-84
2023/11/27 06:04:07;;;;;;;6.60;4.20;;;8.60;99.90;;;;;;5012989;28;21055;-84
2023/11/27 06:06:33;;;;;;;7.10;4.60;;;8.50;99.90;;;;;;5049768;28;20910;-84
2023/11/27 06:08:59;;;;;;;6.85;5.00;;;8.60;99.90;;;;;;5050524;28;20435;-84
2023/11/27 06:11:25;;;;;;;7.33;4.70;;;8.60;99.90;;;;;;5015540;28;20203;-84
2023/11/27 06:13:53;;;;;;;5.33;4.67;;;8.60;99.90;;;;;;5032528;28;20422;-84
2023/11/27 06:16:28;;;;;;;5.77;4.70;;;8.60;99.90;;;;;;5049462;28;20458;-83
2023/11/27 06:18:54;;;;;;;7.65;4.38;;;8.60;99.90;;;;;;5032047;28;20438;-83
2023/11/27 06:21:20;;;;;;;4.40;4.10;;;8.60;99.90;;;;;;5049305;28;20183;-82
2023/11/27 06:23:48;;;;;;;8.63;4.95;;;8.50;99.90;;;;;;5032630;28;20184;-84
2023/11/27 06:26:17;;;;;;;5.87;4.80;;;8.60;99.90;;;;;;5049572;28;20222;-84
2023/11/27 06:28:43;;;;;;;5.90;4.60;;;8.70;99.90;;;;;;5032116;28;20446;-84
2023/11/27 06:31:12;;;;;;;5.40;4.20;;;8.60;99.90;;;;;;5015425;28;20552;-84
2023/11/27 06:33:40;;;;;;;5.03;4.53;;;8.60;99.90;;;;;;5015915;28;20485;-83
2023/11/27 06:36:09;;;;;;;7.67;4.83;;;8.60;99.90;;;;;;5014130;28;20462;-85
2023/11/27 06:38:35;;;;;;;8.30;4.87;;;8.60;99.90;;;;;;5016015;28;20468;-85
2023/11/27 06:41:01;;;;;;;4.93;4.20;;;8.60;99.90;;;;;;5031962;28;20586;-84
2023/11/27 06:43:32;;;;;;;6.33;4.00;;;8.50;99.90;;;;;;5016106;28;20868;-85
2023/11/27 06:45:58;;;;;;;7.40;4.50;;;8.50;99.90;;;;;;5025499;28;20453;-85
2023/11/27 06:48:23;;;;;;;5.00;4.27;;;8.50;99.90;;;;;;5027496;28;20426;-84
2023/11/27 06:50:49;;;;;;;6.23;4.53;;;8.60;99.90;;;;;;5049665;28;20445;-84
2023/11/27 06:53:15;;;;;;;4.95;4.35;;;8.60;99.90;;;;;;5036205;28;20458;-84
2023/11/27 06:55:43;;;;;;;6.95;4.60;;;8.50;99.90;;;;;;5050403;28;20188;-83
2023/11/27 06:58:09;;;;;;;7.60;4.10;;;8.40;99.90;;;;;;5049424;28;20284;-83
2023/11/27 07:00:36;;;;;;;7.87;5.07;;;8.60;99.90;;;;;;5016302;28;20571;-84
2023/11/27 07:03:03;;;;;;;5.80;3.83;;;8.60;99.90;;;;;;5032686;28;20425;-84
2023/11/27 07:05:31;;;;;;;5.93;3.97;;;8.90;99.90;;;;;;4999231;28;20450;-84
2023/11/27 07:07:57;;;;;;;5.43;4.68;;;8.50;99.90;;;;;;5008171;28;20526;-84
2023/11/27 07:10:25;;;;;;;6.30;3.73;;;8.50;99.90;;;;;;5027723;28;20236;-84
2023/11/27 07:12:51;;;;;;;6.53;4.70;;;8.60;99.90;;;;;;5033880;28;20465;-85
2023/11/27 07:15:17;;;;;;;8.02;4.93;;;8.50;99.90;;;;;;5053528;28;20468;-84
2023/11/27 07:17:45;;;;;;;4.77;3.97;;;8.50;99.90;;;;;;5019992;28;20310;-84
2023/11/27 07:20:17;;;;;;;5.53;4.33;;;8.60;99.90;;;;;;5019688;28;20188;-84
2023/11/27 07:22:46;;;;;;;6.65;4.40;;;8.50;99.90;;;;;;4995769;28;20493;-82
2023/11/27 07:25:17;;;;;;;5.40;4.33;;;8.50;99.90;;;;;;5036489;28;20192;-84
2023/11/27 07:27:45;;;;;;;4.83;4.43;;;8.60;99.90;;;;;;5053471;28;20472;-84
2023/11/27 07:30:12;;;;;;;3.73;3.40;;;8.60;99.90;;;;;;5052708;28;20461;-84
2023/11/27 07:32:42;;;;;;;5.60;3.57;;;8.50;99.90;;;;;;5001521;28;20435;-85
2023/11/27 07:35:14;;;;;;;4.83;3.87;;;8.50;99.90;;;;;;5035299;28;20450;-83
2023/11/27 07:37:43;;;;;;;10.23;4.70;;;8.50;99.90;;;;;;5034713;28;20907;-82
2023/11/27 07:40:14;;;;;;;4.50;3.60;;;8.50;99.90;;;;;;5035074;28;20931;-85
2023/11/27 07:42:45;;;;;;;6.53;4.53;;;8.50;99.90;;;;;;5035713;28;21167;-84
2023/11/27 07:45:13;;;;;;;3.97;3.58;;;8.50;99.90;;;;;;5018796;28;20557;-84
2023/11/27 07:47:40;;;;;;;6.63;4.30;;;8.40;99.90;;;;;;5034543;28;20262;-84
2023/11/27 07:50:09;;;;;;;4.10;3.47;;;8.50;99.90;;;;;;5033119;28;20446;-84
2023/11/27 07:52:35;;;;;;;4.40;3.70;;;8.50;99.90;;;;;;5051200;28;20886;-85
2023/11/27 07:55:04;;;;;;;4.93;3.20;;;8.50;99.90;;;;;;5016900;28;20475;-84
2023/11/27 07:57:33;;;;;;;7.63;3.83;;;8.50;99.90;;;;;;5016887;28;20427;-83
2023/11/27 08:00:01;;;;;;;5.27;4.10;;;8.30;99.90;;;;;;5017673;28;20978;-84
2023/11/27 08:02:27;;;;;;;5.73;3.93;;;8.40;99.90;;;;;;4998019;28;20424;-84
2023/11/27 08:04:53;;;;;;;5.63;3.80;;;8.40;99.90;;;;;;5024615;28;20450;-84
2023/11/27 08:07:19;;;;;;;6.03;3.90;;;8.50;99.90;;;;;;4997467;28;21008;-85
2023/11/27 08:09:46;;;;;;;4.30;3.17;;;8.40;99.90;;;;;;5015438;28;20445;-84
2023/11/27 08:12:14;;;;;;;4.80;3.40;;;8.40;99.90;;;;;;5016803;28;20472;-84
2023/11/27 08:14:40;;;;;;;4.50;2.93;;;8.40;99.90;;;;;;5033711;28;20433;-83
2023/11/27 08:17:06;;;;;;;3.37;3.07;;;8.40;99.90;;;;;;5033183;28;20447;-82
2023/11/27 08:19:37;;;;;;;4.00;3.40;;;8.40;99.90;;;;;;5033335;28;20536;-83
2023/11/27 08:22:06;;;;;;;4.07;3.13;;;8.40;99.90;;;;;;5030447;28;20439;-83
2023/11/27 08:24:40;;;;;;;5.90;3.10;;;8.40;99.90;;;;;;5050986;28;20453;-84
2023/11/27 08:27:06;;;;;;;3.63;3.33;;;8.40;99.90;;;;;;5019319;28;20466;-84
2023/11/27 08:29:32;;;;;;;5.03;3.33;;;8.40;99.90;;;;;;5030005;28;20437;-84
2023/11/27 08:31:59;;;;;;;3.93;2.93;;;8.40;99.90;;;;;;5050940;28;20496;-84
2023/11/27 08:34:26;;;;;;;3.80;3.00;;;8.40;99.90;;;;;;4992269;28;21065;-85
2023/11/27 08:36:52;;;;;;;6.23;3.40;;;8.40;99.90;;;;;;4999684;28;20479;-83
2023/11/27 08:39:21;;;;;;;6.13;3.40;;;8.20;99.90;;;;;;5033614;28;20793;-85
2023/11/27 08:41:52;;;;;;;3.42;3.15;;;8.40;99.90;;;;;;5050848;28;20454;-84
2023/11/27 08:44:18;;;;;;;3.30;2.97;;;8.40;99.90;;;;;;5017051;28;20215;-83
2023/11/27 08:46:46;;;;;;;3.97;3.53;;;8.40;99.90;;;;;;5035771;28;20461;-86
2023/11/27 08:49:13;;;;;;;5.03;3.37;;;8.40;99.90;;;;;;5060965;28;20460;-85
2023/11/27 08:51:47;;;;;;;4.87;3.40;;;8.30;99.90;;;;;;5033980;28;20774;-85
2023/11/27 08:54:15;;;;;;;4.90;3.40;;;8.40;99.90;;;;;;5029545;28;20525;-85
2023/11/27 08:56:46;;;;;;;4.53;3.27;;;8.40;99.90;;;;;;5034009;28;20461;-83
2023/11/27 08:59:12;;;;;;;4.90;3.00;;;8.40;99.90;;;;;;5033269;28;20435;-84
2023/11/27 09:01:39;;;;;;;9.27;3.43;;;8.60;99.90;;;;;;5032404;28;21004;-82
2023/11/27 09:04:06;;;;;;;2.90;2.70;;;8.30;99.90;;;;;;5015610;28;21020;-84
2023/11/27 09:06:32;;;;;;;4.43;3.20;;;8.40;99.90;;;;;;5012756;28;20220;-84
2023/11/27 09:09:07;;;;;;;3.47;2.77;;;8.40;99.90;;;;;;5016334;28;20533;-84
2023/11/27 09:11:33;;;;;;;3.10;2.80;;;8.50;99.90;;;;;;5001146;28;20470;-85
2023/11/27 09:14:00;;;;;;;3.85;3.55;;;8.40;99.90;;;;;;5017997;28;20431;-87
2023/11/27 09:16:25;;;;;;;3.90;3.40;;;8.50;99.90;;;;;;5018172;28;20218;-86
2023/11/27 09:18:51;;;;;;;3.30;2.50;;;8.50;99.90;;;;;;5001609;28;21105;-86
2023/11/27 09:21:18;;;;;;;3.10;2.60;;;8.50;99.90;;;;;;5017399;28;20435;-86
2023/11/27 09:23:46;;;;;;;5.57;2.80;;;8.50;99.90;;;;;;5016889;28;20714;-84
2023/11/27 09:26:14;;;;;;;4.30;2.70;;;8.50;99.90;;;;;;5050113;28;20521;-85
2023/11/27 09:28:41;;;;;;;5.57;3.10;;;8.50;99.90;;;;;;4999997;28;20438;-85
2023/11/27 09:31:07;;;;;;;4.30;2.92;;;8.40;99.90;;;;;;5050681;28;20466;-85
2023/11/27 09:33:34;;;;;;;4.70;2.90;;;8.50;99.90;;;;;;5016563;28;20235;-86
2023/11/27 09:36:03;;;;;;;3.30;2.60;;;9.20;99.90;;;;;;5016426;28;20426;-86
2023/11/27 09:38:30;;;;;;;5.27;3.10;;;8.50;99.90;;;;;;5029644;28;20458;-86
2023/11/27 09:40:56;;;;;;;4.97;2.53;;;8.40;99.90;;;;;;5017771;28;20521;-83
2023/11/27 09:43:22;;;;;;;2.60;2.40;;;8.40;99.90;;;;;;5032695;28;20422;-85
2023/11/27 09:45:49;;;;;;;4.30;3.13;;;8.40;99.90;;;;;;5015313;28;20530;-86
2023/11/27 09:48:18;;;;;;;3.43;3.13;;;8.40;99.90;;;;;;5034498;28;20482;-88
2023/11/27 09:50:47;;;;;;;3.27;2.97;;;8.60;99.90;;;;;;5018618;28;20946;-87
2023/11/27 09:53:17;;;;;;;3.03;2.70;;;8.40;99.90;;;;;;5009102;28;20502;-86
2023/11/27 09:55:49;;;;;;;2.57;2.37;;;8.50;99.90;;;;;;5034571;28;20489;-86
2023/11/27 09:58:17;;;;;;;3.27;2.40;;;8.30;99.90;;;;;;5017539;28;20493;-86
2023/11/27 10:00:45;;;;;;;3.23;2.70;;;8.30;99.90;;;;;;5018642;28;20435;-89
2023/11/27 10:03:14;;;;;;;3.73;2.97;;;8.30;99.90;;;;;;5004994;28;20449;-91
2023/11/27 10:05:43;;;;;;;5.05;2.60;;;8.40;99.90;;;;;;5020160;28;20462;-94
2023/11/27 10:08:11;;;;;;;2.80;2.38;;;8.50;99.90;;;;;;5030587;28;20196;-93
2023/11/27 10:10:37;;;;;;;2.60;2.40;;;8.40;99.90;;;;;;5019420;28;20249;-90
2023/11/27 10:13:04;;;;;;;3.63;2.40;;;8.50;99.90;;;;;;4998316;28;20900;-94
2023/11/27 10:15:33;;;;;;;3.17;2.83;;;8.40;99.90;;;;;;5003548;28;20724;-94
2023/11/27 10:18:00;;;;;;;2.53;2.33;;;8.50;99.90;;;;;;5019595;28;20253;-91
2023/11/27 10:20:29;;;;;;;2.80;2.60;;;8.40;99.90;;;;;;5015982;28;20451;-91
2023/11/27 10:23:01;;;;;;;2.80;2.50;;;8.50;99.90;;;;;;5002963;28;20430;-92
2023/11/27 10:25:29;;;;;;;5.23;2.17;;;8.50;99.90;;;;;;5016354;28;20430;-91
2023/11/27 10:28:00;;;;;;;2.80;2.60;;;8.40;99.90;;;;;;5002831;28;20480;-90
2023/11/27 10:30:29;;;;;;;2.63;2.33;;;8.40;99.90;;;;;;5019612;28;20432;-88
2023/11/27 10:32:56;;;;;;;2.50;2.30;;;8.30;99.90;;;;;;5007694;28;20932;-91
2023/11/27 10:35:29;;;;;;;2.70;2.47;;;8.70;99.90;;;;;;5003013;28;20429;-94
2023/11/27 10:37:55;;;;;;;2.53;2.30;;;8.30;99.90;;;;;;5020112;28;20525;-88
2023/11/27 10:40:26;;;;;;;2.77;2.50;;;8.40;99.90;;;;;;5019668;28;20875;-91
2023/11/27 10:43:00;;;;;;;2.30;2.10;;;8.30;99.90;;;;;;5016754;28;20408;-94
2023/11/27 10:45:30;;;;;;;2.57;2.37;;;8.90;99.90;;;;;;5008005;28;20495;-93
2023/11/27 10:47:59;;;;;;;3.20;2.10;;;8.50;99.90;;;;;;5007202;28;20509;-93
2023/11/27 10:50:32;;;;;;;2.20;2.00;;;8.40;99.90;;;;;;5023368;28;20468;-92
2023/11/27 10:52:59;;;;;;;2.53;2.33;;;8.30;99.90;;;;;;5004239;28;20427;-93
2023/11/27 10:55:27;;;;;;;2.80;2.53;;;8.30;99.90;;;;;;4989084;28;20742;-93
2023/11/27 10:57:58;;;;;;;3.00;2.03;;;8.40;99.90;;;;;;5040262;28;20422;-91
2023/11/27 11:00:38;;;;;;;2.20;2.00;;;8.80;99.90;;;;;;5040431;28;20439;-90
2023/11/27 11:03:21;;;;;;;2.20;2.00;;;8.30;99.90;;;;;;5004958;28;20483;-89
2023/11/27 11:05:53;;;;;;;3.60;2.60;;;8.40;99.90;;;;;;5022998;28;20513;-92
2023/11/27 11:08:26;;;;;;;2.63;2.40;;;8.30;99.90;;;;;;5007456;28;20567;-92
2023/11/27 11:10:58;;;;;;;2.00;1.90;;;8.30;99.90;;;;;;5028049;28;20453;-94
2023/11/27 11:13:25;;;;;;;2.43;2.23;;;8.30;99.90;;;;;;5004525;28;20732;-92
2023/11/27 11:16:15;;;;;;;2.90;2.43;;;8.30;99.90;;;;;;5038617;28;20437;-93
2023/11/27 11:19:08;;;;;;;2.30;2.10;;;8.30;99.90;;;;;;5040093;28;20441;-91
2023/11/27 11:21:47;;;;;;;2.30;2.20;;;8.30;99.90;;;;;;4996709;28;20430;-91
2023/11/27 11:24:24;;;;;;;2.07;1.93;;;8.20;99.90;;;;;;5020503;28;20453;-91
2023/11/27 11:26:56;;;;;;;3.20;1.90;;;8.20;99.90;;;;;;5022493;28;20492;-90
2023/11/27 11:29:33;;;;;;;2.10;1.90;;;8.30;99.90;;;;;;5006162;28;20779;-89
2023/11/27 11:32:09;;;;;;;2.50;2.03;;;8.30;99.90;;;;;;5006178;28;20491;-91
2023/11/27 11:34:41;;;;;;;2.30;2.10;;;8.30;99.90;;;;;;5032311;28;20433;-90
2023/11/27 11:37:11;;;;;;;2.30;2.10;;;8.30;99.90;;;;;;5006083;28;20843;-92
2023/11/27 11:39:41;;;;;;;2.03;1.90;;;8.20;99.90;;;;;;5019158;28;20975;-90
2023/11/27 11:42:13;;;;;;;2.30;2.07;;;8.40;99.90;;;;;;5031733;28;21089;-90
2023/11/27 11:44:41;;;;;;;2.30;2.10;;;8.10;99.90;;;;;;5002897;28;20709;-90
2023/11/27 11:47:26;;;;;;;2.60;2.40;;;8.30;99.90;;;;;;5002985;28;20221;-90
2023/11/27 11:50:33;;;;;;;2.03;1.92;;;8.30;99.90;;;;;;5025827;28;20450;-90
2023/11/27 11:53:10;;;;;;;2.50;2.30;;;8.30;99.90;;;;;;5007460;28;20547;-90
2023/11/27 11:55:43;;;;;;;2.50;2.30;;;8.40;99.90;;;;;;5036775;28;20237;-91
2023/11/27 11:58:19;;;;;;;2.60;2.20;;;8.40;99.90;;;;;;5024401;28;20450;-90
2023/11/27 12:00:46;;;;;;;2.30;2.10;;;8.40;99.90;;;;;;5025347;28;20445;-91
2023/11/27 12:03:20;;;;;;;2.20;2.10;;;8.40;99.90;;;;;;5022905;28;20485;-92
2023/11/27 12:05:52;;;;;;;2.20;2.00;;;8.40;99.90;;;;;;5006201;28;20520;-92
2023/11/27 12:08:26;;;;;;;2.40;2.20;;;8.70;99.90;;;;;;5005546;28;20501;-89
2023/11/27 12:10:53;;;;;;;7.83;2.20;;;8.70;99.90;;;;;;5010249;28;20450;-91
2023/11/27 12:13:25;;;;;;;5.60;2.00;;;8.30;99.90;;;;;;5024305;28;20479;-89
2023/11/27 12:15:52;;;;;;;2.67;2.28;;;8.30;99.90;;;;;;5005413;28;20768;-91
2023/11/27 12:18:22;;;;;;;2.60;2.40;;;8.20;99.90;;;;;;5037562;28;20255;-89
2023/11/27 12:25:18;;;;;;;2.50;2.30;;;8.40;99.90;;;;;;4962674;28;20506;-89
2023/11/27 12:32:07;;;;;;;2.77;2.57;;;8.30;99.90;;;;;;4868933;29;20506;-93
2023/11/27 12:47:04;;;;;;;2.10;1.90;;;8.30;99.90;;;;;;4775323;30;20539;-90
2023/11/27 12:53:47;;;;;;;2.40;2.20;;;8.50;99.90;;;;;;4784337;30;20491;-92
2023/11/27 12:56:23;;;;;;;2.47;2.27;;;8.80;99.90;;;;;;4811957;29;20462;-92
2023/11/27 13:03:05;;;;;;;;;;;;;;;;;;;;;
2023/11/27 13:10:09;;;;;;;2.27;2.13;;;8.40;99.90;;;;;;4920726;29;20478;-90
2023/11/27 13:12:48;;;;;;;2.50;2.30;;;8.30;99.90;;;;;;4920609;29;20447;-89
2023/11/27 13:15:43;;;;;;;3.13;2.40;;;8.20;99.90;;;;;;4923741;29;20293;-90
2023/11/27 13:22:36;;;;;;;2.33;2.20;;;8.30;99.90;;;;;;4942570;28;20557;-93
2023/11/27 13:30:29;;;;;;;2.63;2.40;;;8.40;99.90;;;;;;5051239;28;20569;-91
2023/11/27 13:33:50;;;;;;;2.70;2.50;;;8.10;99.90;;;;;;5040843;28;20441;-93
2023/11/27 13:57:36;;;;;;;3.70;2.27;;;8.40;99.90;;;;;;4911292;29;20447;-89
2023/11/27 14:00:18;;;;;;;2.50;2.30;;;8.30;99.90;;;;;;4926921;28;20472;-91
2023/11/27 14:02:47;;;;;;;2.50;2.33;;;8.30;99.90;;;;;;5005014;28;20427;-89
2023/11/27 14:05:20;;;;;;;2.80;2.60;;;8.30;99.90;;;;;;4999154;28;20900;-92
2023/11/27 14:07:50;;;;;;;3.77;2.90;;;8.20;99.90;;;;;;5015085;28;20467;-90
2023/11/27 14:10:27;;;;;;;2.40;2.20;;;8.20;99.90;;;;;;4981898;28;20451;-89